Flight Track Log - Related Links

Times and Time Zones

All times are in EDT time to prevent confusion due to time zone crossing. See the GGN7282 flight status page for this flight to view local times or setup timezone preferences in your user account.

Time Position Orientation Groundspeed Altitude Reporting Facility
EDT Latitude Longitude Course Direction KTS MPH feet Rate Location/Type
Mon 03:29:17 PM 43.6667 -79.6333 180° South 150 173 1,400  Level Toronto Center
Mon 03:30:17 PM 43.6167 -79.6333 180° South 170 196 3,000 950 Climbing Toronto Center
Mon 03:31:17 PM 43.5500 -79.6167 170° South 230 265 3,300 500 Climbing Toronto Center
Mon 03:32:17 PM 43.4833 -79.5833 160° South 220 253 4,000 1,100 Climbing Toronto Center
Mon 03:33:17 PM 43.4500 -79.5167 125° Southeast 240 276 5,500 1,000 Climbing Toronto Center
Mon 03:34:17 PM 43.4500 -79.4333 90° East 240 276 6,000 650 Climbing Toronto Center
Mon 03:35:17 PM 43.4500 -79.3333 90° East 260 299 6,800 1,000 Climbing Toronto Center
Mon 03:36:17 PM 43.4333 -79.2500 105° East 260 299 8,000 1,350 Climbing Toronto Center
Mon 03:37:17 PM 43.4333 -79.1333 90° East 250 288 9,500 1,350 Climbing Toronto Center
Mon 03:38:17 PM 43.4333 -79.0333 90° East 250 288 10,700 1,350 Climbing Toronto Center
Mon 03:39:17 PM 43.4167 -78.9500 105° East 250 288 12,200 1,450 Climbing Toronto Center
Mon 03:40:17 PM 43.4000 -78.8500 103° East 250 288 13,600 1,500 Climbing Toronto Center
Mon 03:41:17 PM 43.3667 -78.7833 125° Southeast 240 276 15,200 1,626 Climbing Toronto Center
Mon 03:42:04 PM 43.3442 -78.7619 145° Southeast 236 272 16,500 1,570 Climbing Cleveland Center
Mon 03:43:04 PM 43.3075 -78.6833 123° Southeast 236 272 18,000 1,550 Climbing Cleveland Center
Mon 03:44:04 PM 43.2686 -78.6047 124° Southeast 236 272 19,600 1,500 Climbing Cleveland Center
Mon 03:45:04 PM 43.2319 -78.5317 125° Southeast 241 277 21,000 1,200 Climbing Cleveland Center
Mon 03:46:04 PM 43.2011 -78.4444 116° Southeast 241 277 22,000 950 Climbing Cleveland Center
Mon 03:47:04 PM 43.1619 -78.3603 123° Southeast 247 284 22,900 950 Climbing Cleveland Center
Mon 03:48:04 PM 43.1169 -78.2853 129° Southeast 253 291 23,900 900 Climbing Cleveland Center
Mon 03:49:04 PM 43.1125 -78.1772 93° East 253 291 24,700 650 Climbing Cleveland Center
Mon 03:50:04 PM 43.0936 -78.0700 104° East 269 310 25,200 200 Climbing Cleveland Center
Mon 03:51:04 PM 43.0622 -77.9661 112° Southeast 283 326 25,100 -50 Descending Cleveland Center
Mon 03:52:04 PM 43.0261 -77.8567 114° Southeast 296 341 25,100 50 Level Cleveland Center
Mon 03:53:04 PM 42.9906 -77.7533 115° Southeast 301 346 25,200 -50 Climbing Cleveland Center
Mon 03:54:04 PM 42.9875 -77.6369 92° East 301 346 25,000 -100 Descending Cleveland Center
Mon 03:55:04 PM 42.9844 -77.5208 92° East 301 346 25,000  Level Cleveland Center
Mon 03:56:04 PM 42.9772 -77.4047 95° East 301 346 25,000 50 Level Cleveland Center
Mon 03:57:04 PM 42.9717 -77.2803 93° East 301 346 25,100  Climbing Cleveland Center
Mon 03:58:04 PM 42.9639 -77.1614 95° East 301 346 25,000 -100 Descending Cleveland Center
Mon 03:59:04 PM 42.9606 -77.0481 92° East 301 346 24,900  Descending Cleveland Center
Mon 04:00:52 PM 42.9467 -76.8458 95° East 306 352 25,000  Climbing Boston Center
Mon 04:01:53 PM 42.9428 -76.7322 93° East 306 352 24,900 -49 Descending Boston Center
Mon 04:02:54 PM 42.9364 -76.6181 94° East 301 346 24,900  Level Boston Center
Mon 04:03:54 PM 42.9300 -76.5069 94° East 296 341 24,900 51 Level Boston Center
Mon 04:04:52 PM 42.9258 -76.3906 93° East 296 341 25,000 102 Climbing Boston Center
Mon 04:05:52 PM 42.9194 -76.2767 94° East 296 341 25,100  Climbing Boston Center
Mon 04:06:52 PM 42.9125 -76.1656 95° East 296 341 25,000 -50 Descending Boston Center
Mon 04:07:53 PM 42.9078 -76.0575 93° East 296 341 25,000  Level Boston Center
Mon 04:08:53 PM 42.8964 -75.9519 98° East 291 335 25,000  Level Boston Center
Mon 04:09:54 PM 42.8933 -75.8469 92° East 284 327 25,000 -492 Level Boston Center
Mon 04:10:55 PM 42.8842 -75.7331 96° East 284 327 24,000 -763 Descending Boston Center
Mon 04:11:52 PM 42.8728 -75.6192 98° East 297 342 23,500 -513 Descending Boston Center
Mon 04:12:52 PM 42.8678 -75.4997 93° East 302 348 23,000 -246 Descending Boston Center
Mon 04:13:54 PM 42.8625 -75.3861 94° East 302 348 23,000 -300 Level Boston Center
Mon 04:14:52 PM 42.8528 -75.2781 97° East 297 342 22,400 -706 Descending Boston Center
Mon 04:15:53 PM 42.8450 -75.1644 95° East 292 336 21,600 -885 Descending Boston Center
Mon 04:16:54 PM 42.8458 -75.0483 89° East 292 336 20,600 -1,304 Descending Boston Center
Mon 04:17:25 PM 42.8492 -74.9833 86° East 316 364 19,600 -1,891 Descending Boston Center
Mon 04:18:26 PM 42.8539 -74.8672 87° East 306 352 17,700 -1,781 Descending Boston Center
Mon 04:19:33 PM 42.8564 -74.7456 88° East 297 342 15,800 -1,922 Descending Boston Center
Mon 04:20:34 PM 42.8608 -74.6269 87° East 291 335 13,600 -2,083 Descending Boston Center
Mon 04:21:34 PM 42.8628 -74.5192 89° East 289 333 11,600 -1,623 Descending Boston Center
Mon 04:22:36 PM 42.8667 -74.4175 87° East 262 302 10,300 -1,397 Descending Boston Center
Mon 04:23:30 PM 42.8725 -74.3269 85° East 252 290 8,900 -1,289 Descending Boston Center
Mon 04:24:37 PM 42.8889 -74.2197 78° East 272 313 7,700 -1,190 Descending Boston Center
Mon 04:25:31 PM 42.8964 -74.1264 84° East 274 315 6,500 -1,252 Descending Boston Center
Mon 04:26:32 PM 42.9042 -74.0189 84° East 276 318 5,300 -1,339 Descending Boston Center
Mon 04:27:32 PM 42.9139 -73.9283 82° East 243 280 3,800 -1,388 Descending Boston Center
Mon 04:28:33 PM 42.9211 -73.8406 84° East 212 244 2,500 -893 Descending Boston Center
Mon 04:29:33 PM 42.8797 -73.8114 153° Southeast 164 189 2,000 -397 Descending Boston Center
Mon 04:30:34 PM 42.8361 -73.8133 182° South 161 185 1,700 -522 Descending Boston Center
Mon 04:31:28 PM 42.7964 -73.8097 176° South 136 157 1,000 -730 Descending Boston Center
Mon 04:32:29 PM 42.7611 -73.8089 179° South 129 148 300 -689 Descending Boston Center
Mon 04:34:00 PM 42.7491 -73.8020 North  Level Estimated
Mon 04:41:00 PM 42.7491 -73.8020 North  Level Estimated
Mon 04:42:00 PM 42.7491 -73.8020 North  Level Estimated

Login

Don't have an account? Register now (free) for customized features, flight alerts, and more!